createdAt,value
2022-09-12T00:02:21.237Z,99713.14
2022-09-12T00:04:56.233Z,99712.55
2022-09-12T00:07:31.144Z,99707.65
2022-09-12T00:10:06.632Z,99704.27
2022-09-12T00:12:42.086Z,99700.54
2022-09-12T00:15:17.916Z,99705.02
2022-09-12T00:17:51.320Z,99706.80
2022-09-12T00:20:24.523Z,99710.69
2022-09-12T00:22:57.800Z,99703.31
2022-09-12T00:25:31.829Z,99700.49
2022-09-12T00:28:04.982Z,99691.34
2022-09-12T00:30:41.882Z,99693.83
2022-09-12T00:33:15.575Z,99699.63
2022-09-12T00:35:50.935Z,99704.26
2022-09-12T00:38:24.322Z,99703.40
2022-09-12T00:40:57.451Z,99702.16
2022-09-12T00:43:43.102Z,99696.07
2022-09-12T00:46:45.370Z,99684.89
2022-09-12T00:49:23.862Z,99674.50
2022-09-12T00:52:12.793Z,99685.25
2022-09-12T00:54:57.569Z,99695.48
2022-09-12T00:57:40.077Z,99690.27
2022-09-12T01:00:18.081Z,99692.95
2022-09-12T01:03:04.578Z,99692.56
2022-09-12T01:05:45.164Z,99684.14
2022-09-12T01:08:19.443Z,99686.14
2022-09-12T01:10:53.172Z,99679.58
2022-09-12T01:13:26.892Z,99686.71
2022-09-12T01:15:59.874Z,99687.81
2022-09-12T01:18:45.898Z,99675.60
2022-09-12T01:21:41.043Z,99676.45
2022-09-12T01:24:23.463Z,99700.67
2022-09-12T01:27:20.111Z,99700.83
2022-09-12T01:30:06.211Z,99694.71
2022-09-12T01:33:09.141Z,99701.04
2022-09-12T01:35:58.711Z,99699.08
2022-09-12T01:38:36.902Z,99693.64
2022-09-12T01:41:50.962Z,99684.39
2022-09-12T01:44:47.155Z,99696.65
2022-09-12T01:47:42.241Z,99702.25
2022-09-12T01:50:22.403Z,99691.74
2022-09-12T01:53:21.733Z,99696.84
2022-09-12T01:56:09.503Z,99686.07
2022-09-12T01:58:50.612Z,99696.73
2022-09-12T02:01:39.833Z,99691.33
2022-09-12T02:04:31.069Z,99685.80
2022-09-12T02:07:36.470Z,99685.73
2022-09-12T02:10:19.164Z,99686.48
2022-09-12T02:13:01.433Z,99686.98
2022-09-12T02:15:43.073Z,99686.39
2022-09-12T02:18:19.123Z,99679.91
2022-09-12T02:20:54.215Z,99691.45
2022-09-12T02:23:33.146Z,99695.58
2022-09-12T02:26:12.993Z,99697.89
2022-09-12T02:28:47.893Z,99692.35
2022-09-12T02:31:34.025Z,99690.01
2022-09-12T02:34:27.786Z,99692.15
2022-09-12T02:37:36.124Z,99698.45
2022-09-12T02:40:10.205Z,99686.55
2022-09-12T02:42:43.143Z,99700.35
2022-09-12T02:45:17.010Z,99692.93
2022-09-12T02:48:13.611Z,99701.36
2022-09-12T02:50:46.735Z,99701.72
2022-09-12T02:53:20.770Z,99706.37
2022-09-12T02:55:55.111Z,99708.88
2022-09-12T02:58:32.397Z,99714.59
2022-09-12T03:01:31.698Z,99711.47
2022-09-12T03:04:17.797Z,99726.67
2022-09-12T03:07:00.111Z,99729.54
2022-09-12T03:09:51.710Z,99735.11
2022-09-12T03:12:49.312Z,99730.49
2022-09-12T03:15:44.091Z,99733.34
2022-09-12T03:18:34.105Z,99735.99
2022-09-12T03:21:12.494Z,99736.05
2022-09-12T03:23:53.568Z,99739.03
2022-09-12T03:26:41.476Z,99734.97
2022-09-12T03:29:16.993Z,99750.35
2022-09-12T03:32:00.432Z,99753.27
2022-09-12T03:34:33.449Z,99749.09
2022-09-12T03:37:07.021Z,99753.32
2022-09-12T03:39:41.183Z,99750.67
2022-09-12T03:42:15.355Z,99758.78
2022-09-12T03:44:49.024Z,99758.96
2022-09-12T03:47:23.139Z,99759.91
2022-09-12T03:49:56.278Z,99758.22
2022-09-12T03:52:30.024Z,99745.05
2022-09-12T03:55:04.412Z,99748.00
2022-09-12T03:57:38.152Z,99752.81
2022-09-12T04:00:15.325Z,99760.04
2022-09-12T04:02:57.585Z,99759.52
2022-09-12T04:05:30.755Z,99759.84
2022-09-12T04:08:03.930Z,99760.26
2022-09-12T04:10:37.034Z,99758.77
2022-09-12T04:13:10.178Z,99761.13
2022-09-12T04:15:44.842Z,99759.36
2022-09-12T04:18:19.167Z,99758.68
2022-09-12T04:20:52.973Z,99744.48
2022-09-12T04:23:26.350Z,99760.11
2022-09-12T04:26:03.890Z,99764.80
2022-09-12T04:28:38.236Z,99756.61
2022-09-12T04:31:15.963Z,99767.74
2022-09-12T04:33:49.060Z,99767.55
2022-09-12T04:36:27.636Z,99766.82
2022-09-12T04:39:01.036Z,99766.83
2022-09-12T04:41:37.012Z,99782.31
2022-09-12T04:44:15.171Z,99787.24
2022-09-12T04:46:50.294Z,99790.91
2022-09-12T04:49:23.928Z,99796.83
2022-09-12T04:51:57.713Z,99797.89
2022-09-12T04:54:31.641Z,99801.51
2022-09-12T04:57:05.296Z,99809.00
2022-09-12T04:59:40.541Z,99814.23
2022-09-12T05:02:14.174Z,99815.94
2022-09-12T05:04:48.690Z,99820.83
2022-09-12T05:07:22.844Z,99820.98
2022-09-12T05:09:56.712Z,99820.13
2022-09-12T05:12:31.717Z,99823.13
2022-09-12T05:15:05.461Z,99819.48
2022-09-12T05:17:39.324Z,99807.48
2022-09-12T05:20:13.540Z,99823.31
2022-09-12T05:22:50.631Z,99823.06
2022-09-12T05:25:24.400Z,99820.64
2022-09-12T05:27:58.469Z,99816.64
2022-09-12T05:30:32.120Z,99813.20
2022-09-12T05:33:05.442Z,99812.42
2022-09-12T05:35:38.990Z,99810.27
2022-09-12T05:38:12.282Z,99806.44
2022-09-12T05:40:45.752Z,99803.10
2022-09-12T05:43:21.782Z,99804.06
2022-09-12T05:45:55.684Z,99805.45
2022-09-12T05:48:29.375Z,99805.10
2022-09-12T05:51:09.971Z,99802.33
2022-09-12T05:53:44.218Z,99795.59
2022-09-12T05:56:19.695Z,99785.48
2022-09-12T05:58:58.922Z,99794.45
2022-09-12T06:01:35.222Z,99798.40
2022-09-12T06:04:10.389Z,99811.13
2022-09-12T06:06:55.785Z,99804.17
2022-09-12T06:09:29.972Z,99803.75
2022-09-12T06:12:04.751Z,99803.85
2022-09-12T06:14:39.584Z,99786.35
2022-09-12T06:17:16.366Z,99779.50
2022-09-12T06:19:53.017Z,99799.12
2022-09-12T06:22:27.240Z,99798.19
2022-09-12T06:25:00.895Z,99796.57
2022-09-12T06:27:34.779Z,99797.02
2022-09-12T06:30:08.509Z,99795.11
2022-09-12T06:32:41.976Z,99792.30
2022-09-12T06:35:15.660Z,99792.67
2022-09-12T06:37:49.358Z,99787.61
2022-09-12T06:40:23.345Z,99784.16
2022-09-12T06:42:57.419Z,99794.63
2022-09-12T06:45:38.725Z,99790.14
2022-09-12T06:48:15.008Z,99787.01
2022-09-12T06:50:59.620Z,99793.48
2022-09-12T06:53:34.259Z,99784.27
2022-09-12T06:56:12.924Z,99784.21
2022-09-12T06:58:48.477Z,99791.95
2022-09-12T07:01:28.441Z,99792.52
2022-09-12T07:04:03.935Z,99781.27
2022-09-12T07:06:43.231Z,99798.64
2022-09-12T07:09:17.628Z,99802.65
2022-09-12T07:11:51.772Z,99802.27
2022-09-12T07:14:27.102Z,99801.30
2022-09-12T07:17:00.558Z,99802.63
2022-09-12T07:19:35.723Z,99807.17
2022-09-12T07:22:09.250Z,99810.87
2022-09-12T07:24:43.122Z,99811.17
2022-09-12T07:27:19.030Z,99808.67
2022-09-12T07:29:52.361Z,99805.70
2022-09-12T07:32:25.213Z,99807.39
2022-09-12T07:34:58.375Z,99806.20
2022-09-12T07:37:33.565Z,99806.65
2022-09-12T07:40:07.215Z,99808.70
2022-09-12T07:42:40.628Z,99810.30
2022-09-12T07:45:14.011Z,99811.16
2022-09-12T07:47:47.951Z,99801.82
2022-09-12T07:50:21.916Z,99795.69
2022-09-12T07:52:56.814Z,99797.73
2022-09-12T07:55:30.589Z,99806.79
2022-09-12T07:58:04.722Z,99803.17
2022-09-12T08:00:39.044Z,99806.04
2022-09-12T08:03:13.627Z,99798.98
2022-09-12T08:05:47.585Z,99797.02
2022-09-12T08:08:21.284Z,99800.70
2022-09-12T08:11:04.748Z,99794.51
2022-09-12T08:13:39.492Z,99796.61
2022-09-12T08:16:18.807Z,99803.52
2022-09-12T08:18:52.410Z,99811.32
2022-09-12T08:21:31.147Z,99812.34
2022-09-12T08:24:06.653Z,99809.21
2022-09-12T08:26:42.461Z,99809.27
2022-09-12T08:29:17.244Z,99801.79
2022-09-12T08:31:57.021Z,99798.89
2022-09-12T08:34:31.213Z,99804.90
2022-09-12T08:37:04.907Z,99807.11
2022-09-12T08:39:38.641Z,99803.59
2022-09-12T08:42:24.509Z,99794.96
2022-09-12T08:45:06.933Z,99805.00
2022-09-12T08:50:36.712Z,99810.23
2022-09-12T08:53:27.782Z,99810.37
2022-09-12T08:56:07.742Z,99807.33
2022-09-12T08:58:47.120Z,99807.39
2022-09-12T09:01:29.441Z,99806.67
2022-09-12T09:04:42.582Z,99804.23
2022-09-12T09:07:53.897Z,99791.15
2022-09-12T09:10:44.570Z,99787.05
2022-09-12T09:13:53.458Z,99789.08
2022-09-12T09:16:40.294Z,99789.98
2022-09-12T09:19:24.164Z,99790.90
2022-09-12T09:22:15.296Z,99787.96
2022-09-12T09:25:02.023Z,99783.30
2022-09-12T09:27:51.651Z,99775.56
2022-09-12T09:30:24.913Z,99781.33
2022-09-12T09:33:02.091Z,99781.00
2022-09-12T09:36:02.606Z,99782.98
2022-09-12T09:38:51.998Z,99782.48
2022-09-12T09:41:34.684Z,99782.48
2022-09-12T09:46:50.772Z,99782.80
2022-09-12T09:49:25.168Z,99776.09
2022-09-12T09:52:01.749Z,99772.99
2022-09-12T09:54:58.212Z,99779.54
2022-09-12T09:57:45.417Z,99778.36
2022-09-12T10:00:38.107Z,99776.35
2022-09-12T10:03:16.374Z,99776.93
2022-09-12T10:05:54.743Z,99773.02
2022-09-12T10:08:33.950Z,99769.58
2022-09-12T10:11:20.441Z,99771.02
2022-09-12T10:14:03.770Z,99767.86
2022-09-12T10:16:57.175Z,99763.46
2022-09-12T10:19:52.687Z,99763.54
2022-09-12T10:22:42.061Z,99756.77
2022-09-12T10:25:21.973Z,99756.30
2022-09-12T10:28:03.568Z,99760.22
2022-09-12T10:30:36.415Z,99747.64
2022-09-12T10:33:14.684Z,99759.52
2022-09-12T10:35:51.677Z,99760.27
2022-09-12T10:38:35.567Z,99766.54
2022-09-12T10:41:14.239Z,99768.92
2022-09-12T10:43:49.383Z,99765.97
2022-09-12T10:46:23.656Z,99763.07
2022-09-12T10:49:16.754Z,99764.01
2022-09-12T10:51:50.926Z,99760.20
2022-09-12T10:54:26.931Z,99766.06
2022-09-12T10:57:32.695Z,99769.21
2022-09-12T11:00:35.964Z,99768.33
2022-09-12T11:03:37.968Z,99766.97
2022-09-12T11:06:14.805Z,99752.05
2022-09-12T11:09:04.170Z,99768.67
2022-09-12T11:11:57.927Z,99771.89
2022-09-12T11:14:53.852Z,99772.55
2022-09-12T11:17:49.289Z,99772.52
2022-09-12T11:20:37.470Z,99773.33
2022-09-12T11:23:48.419Z,99774.75
2022-09-12T11:26:42.330Z,99779.27
2022-09-12T11:29:24.173Z,99778.81
2022-09-12T11:32:35.993Z,99777.27
2022-09-12T11:35:21.958Z,99772.42
2022-09-12T11:38:29.661Z,99776.54
2022-09-12T11:41:27.351Z,99787.83
2022-09-12T11:44:20.331Z,99789.19
2022-09-12T11:46:53.791Z,99788.86
2022-09-12T11:49:38.282Z,99784.92
2022-09-12T11:52:25.946Z,99791.38
2022-09-12T11:55:11.755Z,99785.25
2022-09-12T11:57:58.914Z,99781.50
2022-09-12T12:00:49.212Z,99785.39
2022-09-12T12:03:41.049Z,99785.67
2022-09-12T12:06:21.123Z,99785.85
2022-09-12T12:08:55.219Z,99777.30
2022-09-12T12:11:42.964Z,99771.08
2022-09-12T12:14:23.033Z,99778.02
2022-09-12T12:16:56.493Z,99787.55
2022-09-12T12:19:38.755Z,99795.48
2022-09-12T12:22:26.627Z,99791.39
2022-09-12T12:25:29.437Z,99784.02
2022-09-12T12:28:06.370Z,99786.30
2022-09-12T12:30:39.533Z,99788.51
2022-09-12T12:33:14.825Z,99792.70
2022-09-12T12:36:07.907Z,99791.00
2022-09-12T12:38:42.478Z,99785.13
2022-09-12T12:41:20.753Z,99792.38
2022-09-12T12:43:58.247Z,99788.86
2022-09-12T12:46:33.333Z,99784.92
2022-09-12T12:49:35.834Z,99781.38
2022-09-12T12:52:18.682Z,99793.77
2022-09-12T12:54:59.002Z,99800.02
2022-09-12T12:57:39.356Z,99802.91
2022-09-12T13:00:35.619Z,99799.81
2022-09-12T13:03:08.752Z,99799.21
2022-09-12T13:05:59.766Z,99789.70
2022-09-12T13:08:40.077Z,99795.19
2022-09-12T13:11:31.485Z,99791.75
2022-09-12T13:14:07.780Z,99796.21
2022-09-12T13:16:42.886Z,99795.59
2022-09-12T13:19:36.074Z,99800.20
2022-09-12T13:22:11.343Z,99798.56
2022-09-12T13:24:53.164Z,99810.14
2022-09-12T13:27:27.877Z,99815.21
2022-09-12T13:30:16.121Z,99817.08
2022-09-12T13:32:49.249Z,99822.48
2022-09-12T13:35:50.816Z,99828.14
2022-09-12T13:38:50.893Z,99829.92
2022-09-12T13:42:00.857Z,99821.34
2022-09-12T13:44:43.609Z,99829.95
2022-09-12T13:47:34.006Z,99832.79
2022-09-12T13:50:09.024Z,99830.90
2022-09-12T13:52:42.555Z,99831.37
2022-09-12T13:55:34.843Z,99824.48
2022-09-12T13:58:29.190Z,99829.71
2022-09-12T14:01:14.918Z,99819.45
2022-09-12T14:04:16.213Z,99817.94
2022-09-12T14:06:53.703Z,99825.92
2022-09-12T14:09:33.525Z,99828.87
2022-09-12T14:12:21.564Z,99832.98
2022-09-12T14:14:55.148Z,99833.16
2022-09-12T14:17:36.596Z,99835.95
2022-09-12T14:20:19.270Z,99838.88
2022-09-12T14:22:54.716Z,99839.38
2022-09-12T14:25:31.079Z,99843.44
2022-09-12T14:28:05.290Z,99842.67
2022-09-12T14:30:39.969Z,99851.56
2022-09-12T14:33:20.066Z,99849.22
2022-09-12T14:36:09.134Z,99853.23
2022-09-12T14:38:47.364Z,99850.92
2022-09-12T14:41:40.281Z,99857.23
2022-09-12T14:44:21.869Z,99853.42
2022-09-12T14:46:55.633Z,99848.28
2022-09-12T14:49:41.467Z,99850.63
2022-09-12T14:52:34.507Z,99852.63
2022-09-12T14:55:46.804Z,99852.04
2022-09-12T14:58:28.683Z,99858.45
2022-09-12T15:01:04.346Z,99863.13
2022-09-12T15:03:39.876Z,99857.62
2022-09-12T15:06:38.223Z,99859.95
2022-09-12T15:09:15.118Z,99858.41
2022-09-12T15:11:48.125Z,99859.52
2022-09-12T15:14:21.458Z,99846.04
2022-09-12T15:16:54.778Z,99845.46
2022-09-12T15:19:27.822Z,99850.84
2022-09-12T15:22:01.220Z,99853.55
2022-09-12T15:24:33.946Z,99847.83
2022-09-12T15:27:17.438Z,99846.34
2022-09-12T15:29:51.254Z,99852.10
2022-09-12T15:32:28.439Z,99855.68
2022-09-12T15:35:02.015Z,99860.90
2022-09-12T15:37:35.274Z,99866.89
2022-09-12T15:40:09.239Z,99872.95
2022-09-12T15:42:42.914Z,99882.42
2022-09-12T15:45:22.107Z,99891.11
2022-09-12T15:47:55.149Z,99885.88
2022-09-12T15:50:28.655Z,99887.83
2022-09-12T15:53:02.221Z,99890.82
2022-09-12T15:55:35.680Z,99889.36
2022-09-12T15:58:09.501Z,99890.73
2022-09-12T16:00:42.281Z,99890.46
2022-09-12T16:03:33.336Z,99890.42
2022-09-12T16:06:07.961Z,99892.17
2022-09-12T16:08:40.727Z,99884.27
2022-09-12T16:11:26.593Z,99903.44
2022-09-12T16:13:59.459Z,99905.11
2022-09-12T16:16:32.625Z,99908.77
2022-09-12T16:19:06.826Z,99910.27
2022-09-12T16:21:42.492Z,99908.77
2022-09-12T16:24:15.378Z,99916.04
2022-09-12T16:26:48.165Z,99911.00
2022-09-12T16:29:21.361Z,99909.59
2022-09-12T16:31:56.201Z,99926.23
2022-09-12T16:34:29.154Z,99915.31
2022-09-12T16:37:03.310Z,99922.00
2022-09-12T16:39:36.143Z,99921.90
2022-09-12T16:42:08.940Z,99923.10
2022-09-12T16:44:42.107Z,99925.39
2022-09-12T16:47:15.151Z,99927.29
2022-09-12T16:49:48.191Z,99928.56
2022-09-12T16:52:21.266Z,99913.38
2022-09-12T16:54:54.686Z,99927.17
2022-09-12T16:57:30.730Z,99929.83
2022-09-12T17:00:04.413Z,99928.14
2022-09-12T17:02:37.832Z,99930.98
2022-09-12T17:05:11.312Z,99936.59
2022-09-12T17:07:44.986Z,99937.23
2022-09-12T17:10:19.606Z,99940.34
2022-09-12T17:12:52.964Z,99931.60
2022-09-12T17:15:26.653Z,99931.20
2022-09-12T17:18:00.114Z,99938.20
2022-09-12T17:20:33.671Z,99940.09
2022-09-12T17:23:09.747Z,99945.24
2022-09-12T17:25:43.176Z,99940.56
2022-09-12T17:28:15.812Z,99948.42
2022-09-12T17:30:49.157Z,99948.10
2022-09-12T17:33:22.156Z,99945.84
2022-09-12T17:35:54.781Z,99945.29
2022-09-12T17:38:28.121Z,99946.66
2022-09-12T17:41:06.762Z,99946.07
2022-09-12T17:43:40.563Z,99943.54
2022-09-12T17:46:13.627Z,99949.15
2022-09-12T17:48:46.278Z,99955.11
2022-09-12T17:51:18.719Z,99957.47
2022-09-12T17:53:51.490Z,99959.72
2022-09-12T17:56:24.392Z,99956.99
2022-09-12T17:58:57.886Z,99946.02
2022-09-12T18:01:51.568Z,99965.35
2022-09-12T18:04:24.658Z,99963.25
2022-09-12T18:06:58.245Z,99960.38
2022-09-12T18:09:31.484Z,99955.75
2022-09-12T18:12:04.481Z,99948.91
2022-09-12T18:14:38.150Z,99959.04
2022-09-12T18:17:11.974Z,99955.46
2022-09-12T18:19:45.258Z,99957.70
2022-09-12T18:22:17.878Z,99958.10
2022-09-12T18:24:50.285Z,99955.75
2022-09-12T18:27:23.514Z,99959.02
2022-09-12T18:30:19.550Z,99949.02
2022-09-12T18:32:51.282Z,99950.64
2022-09-12T18:35:24.126Z,99945.91
2022-09-12T18:37:57.613Z,99949.23
2022-09-12T18:40:30.933Z,99948.58
2022-09-12T18:43:03.512Z,99950.36
2022-09-12T18:45:37.911Z,99943.15
2022-09-12T18:48:11.522Z,99951.27
2022-09-12T18:50:45.120Z,99955.02
2022-09-12T18:53:18.073Z,99958.45
2022-09-12T18:55:50.978Z,99956.89
2022-09-12T18:58:23.665Z,99954.57
2022-09-12T19:00:56.571Z,99949.93
2022-09-12T19:03:29.338Z,99948.65
2022-09-12T19:06:02.777Z,99947.59
2022-09-12T19:08:37.211Z,99946.55
2022-09-12T19:11:11.527Z,99944.35
2022-09-12T19:13:45.235Z,99943.92
2022-09-12T19:16:21.081Z,99942.14
2022-09-12T19:18:54.970Z,99938.77
2022-09-12T19:21:30.168Z,99931.55
2022-09-12T19:24:13.972Z,99940.80
2022-09-12T19:26:46.875Z,99942.58
2022-09-12T19:29:19.866Z,99947.72
2022-09-12T19:31:52.820Z,99937.91
2022-09-12T19:34:25.524Z,99938.47
2022-09-12T19:36:59.828Z,99944.02
2022-09-12T19:39:32.504Z,99940.86
2022-09-12T19:42:05.381Z,99936.41
2022-09-12T19:44:38.733Z,99934.16
2022-09-12T19:47:12.053Z,99935.01
2022-09-12T19:49:44.989Z,99935.64
2022-09-12T19:52:17.941Z,99936.41
2022-09-12T19:54:50.568Z,99940.20
2022-09-12T19:57:23.784Z,99936.41
2022-09-12T19:59:56.426Z,99937.81
2022-09-12T20:02:30.404Z,99938.21
2022-09-12T20:05:03.362Z,99937.44
2022-09-12T20:07:36.202Z,99931.34
2022-09-12T20:10:09.219Z,99935.45
2022-09-12T20:12:42.359Z,99944.09
2022-09-12T20:15:16.047Z,99944.53
2022-09-12T20:17:49.129Z,99944.91
2022-09-12T20:20:21.838Z,99943.32
2022-09-12T20:22:55.211Z,99942.76
2022-09-12T20:25:27.704Z,99934.42
2022-09-12T20:28:00.412Z,99926.98
2022-09-12T20:30:32.965Z,99939.95
2022-09-12T20:33:05.700Z,99939.48
2022-09-12T20:35:39.544Z,99943.73
2022-09-12T20:38:12.148Z,99939.57
2022-09-12T20:40:50.946Z,99944.90
2022-09-12T20:43:23.752Z,99946.10
2022-09-12T20:45:57.007Z,99948.20
2022-09-12T20:48:29.952Z,99938.36
2022-09-12T20:51:03.340Z,99946.02
2022-09-12T20:53:36.391Z,99947.66
2022-09-12T20:56:10.647Z,99948.23
2022-09-12T20:58:44.857Z,99943.95
2022-09-12T21:01:18.401Z,99937.48
2022-09-12T21:03:51.460Z,99945.89
2022-09-12T21:06:24.764Z,99940.08
2022-09-12T21:09:01.463Z,99942.19
2022-09-12T21:11:34.918Z,99938.51
2022-09-12T21:14:12.084Z,99935.31
2022-09-12T21:16:45.367Z,99935.44
2022-09-12T21:19:18.381Z,99937.59
2022-09-12T21:21:50.867Z,99940.21
2022-09-12T21:24:23.713Z,99940.18
2022-09-12T21:26:57.449Z,99928.44
2022-09-12T21:29:32.763Z,99940.87
2022-09-12T21:32:09.941Z,99939.02
2022-09-12T21:34:48.547Z,99940.73
2022-09-12T21:37:22.553Z,99940.95
2022-09-12T21:39:55.956Z,99937.08
2022-09-12T21:42:29.073Z,99936.05
2022-09-12T21:45:02.585Z,99932.98
2022-09-12T21:47:36.004Z,99929.40
2022-09-12T21:50:12.939Z,99925.05
2022-09-12T21:52:46.732Z,99924.69
2022-09-12T21:55:20.725Z,99928.20
2022-09-12T21:57:53.910Z,99926.86
2022-09-12T22:00:26.556Z,99927.34
2022-09-12T22:02:59.469Z,99928.33
2022-09-12T22:05:33.951Z,99921.64
2022-09-12T22:08:06.233Z,99918.40
2022-09-12T22:10:39.081Z,99923.50
2022-09-12T22:13:11.767Z,99922.94
2022-09-12T22:15:46.356Z,99911.36
2022-09-12T22:18:19.079Z,99910.92
2022-09-12T22:20:51.839Z,99920.70
2022-09-12T22:23:42.839Z,99921.18
2022-09-12T22:26:16.140Z,99920.19
2022-09-12T22:28:48.729Z,99917.31
2022-09-12T22:31:21.997Z,99918.33
2022-09-12T22:33:57.437Z,99915.01
2022-09-12T22:36:31.368Z,99907.84
2022-09-12T22:39:06.628Z,99916.30
2022-09-12T22:41:39.526Z,99912.90
2022-09-12T22:44:12.653Z,99913.52
2022-09-12T22:46:45.532Z,99913.67
2022-09-12T22:49:18.275Z,99912.30
2022-09-12T22:51:51.065Z,99910.58
2022-09-12T22:54:23.654Z,99908.65
2022-09-12T22:56:56.935Z,99909.12
2022-09-12T22:59:29.425Z,99899.19
2022-09-12T23:02:02.601Z,99906.70
2022-09-12T23:08:43.992Z,99905.67
2022-09-12T23:11:19.616Z,99907.88
2022-09-12T23:13:54.183Z,99905.05
2022-09-12T23:16:28.960Z,99907.59
2022-09-12T23:19:02.271Z,99902.88
2022-09-12T23:21:34.818Z,99903.44
2022-09-12T23:24:07.802Z,99906.84
2022-09-12T23:26:41.264Z,99905.98
2022-09-12T23:29:14.853Z,99897.63
2022-09-12T23:31:47.615Z,99897.27
2022-09-12T23:34:20.408Z,99885.90
2022-09-12T23:36:53.151Z,99897.48
2022-09-12T23:39:26.210Z,99888.05
2022-09-12T23:41:59.111Z,99884.56
2022-09-12T23:44:32.633Z,99885.20
2022-09-12T23:47:05.407Z,99880.79
2022-09-12T23:49:38.320Z,99880.37
2022-09-12T23:52:11.608Z,99882.71
2022-09-12T23:54:44.375Z,99871.58
2022-09-12T23:57:17.304Z,99869.60
2022-09-12T23:59:50.410Z,99876.70
